createdAt,value
2018-11-07T00:01:08.519Z,82.26
2018-11-07T00:03:34.861Z,82.03
2018-11-07T00:06:01.182Z,82.12
2018-11-07T00:08:27.534Z,82.17
2018-11-07T00:10:53.793Z,82.00
2018-11-07T00:13:20.126Z,82.01
2018-11-07T00:15:46.455Z,82.03
2018-11-07T00:18:12.795Z,82.12
2018-11-07T00:20:39.125Z,81.98
2018-11-07T00:23:05.474Z,81.93
2018-11-07T00:25:31.774Z,81.65
2018-11-07T00:27:58.094Z,81.41
2018-11-07T00:30:24.434Z,81.25
2018-11-07T00:32:50.763Z,81.18
2018-11-07T00:35:17.176Z,81.18
2018-11-07T00:37:43.429Z,81.06
2018-11-07T00:40:09.816Z,81.29
2018-11-07T00:42:36.116Z,81.25
2018-11-07T00:45:02.418Z,81.42
2018-11-07T00:47:28.746Z,81.49
2018-11-07T00:49:55.049Z,81.44
2018-11-07T00:52:21.380Z,81.80
2018-11-07T00:54:47.713Z,81.97
2018-11-07T00:57:14.054Z,81.80
2018-11-07T00:59:40.378Z,81.80
2018-11-07T01:02:06.712Z,81.62
2018-11-07T01:04:33.039Z,81.67
2018-11-07T01:06:59.375Z,81.57
2018-11-07T01:09:25.762Z,81.75
2018-11-07T01:11:52.035Z,81.94
2018-11-07T01:14:18.342Z,81.93
2018-11-07T01:16:44.676Z,82.22
2018-11-07T01:19:10.983Z,82.20
2018-11-07T01:21:37.287Z,82.07
2018-11-07T01:24:03.614Z,82.40
2018-11-07T01:26:29.914Z,82.14
2018-11-07T01:28:56.256Z,82.36
2018-11-07T01:31:22.565Z,82.28
2018-11-07T01:33:48.868Z,82.44
2018-11-07T01:36:15.198Z,82.50
2018-11-07T01:38:41.550Z,82.77
2018-11-07T01:41:07.872Z,82.83
2018-11-07T01:43:34.181Z,83.06
2018-11-07T01:46:00.512Z,83.53
2018-11-07T01:48:26.818Z,83.69
2018-11-07T01:50:53.120Z,83.89
2018-11-07T01:53:19.514Z,84.00
2018-11-07T01:55:45.774Z,84.11
2018-11-07T01:58:12.105Z,84.13
2018-11-07T02:00:38.449Z,83.80
2018-11-07T02:03:04.779Z,84.20
2018-11-07T02:05:31.101Z,84.04
2018-11-07T02:07:57.412Z,84.10
2018-11-07T02:10:23.739Z,84.36
2018-11-07T02:12:50.071Z,84.28
2018-11-07T02:15:16.380Z,84.51
2018-11-07T02:17:42.690Z,84.61
2018-11-07T02:20:08.998Z,84.73
2018-11-07T02:22:35.305Z,84.70
2018-11-07T02:25:01.636Z,84.72
2018-11-07T02:27:27.962Z,84.94
2018-11-07T02:29:54.286Z,84.96
2018-11-07T02:32:20.625Z,85.26
2018-11-07T02:34:46.947Z,85.07
2018-11-07T02:37:13.255Z,85.35
2018-11-07T02:39:39.582Z,85.35
2018-11-07T02:42:05.899Z,85.48
2018-11-07T02:44:32.227Z,85.59
2018-11-07T02:46:58.562Z,85.79
2018-11-07T02:49:24.867Z,85.83
2018-11-07T02:51:51.175Z,85.94
2018-11-07T02:54:17.512Z,85.83
2018-11-07T02:56:43.812Z,85.67
2018-11-07T02:59:10.142Z,85.77
2018-11-07T03:01:36.466Z,85.60
2018-11-07T03:04:02.798Z,85.58
2018-11-07T03:06:29.137Z,85.67
2018-11-07T03:08:55.444Z,85.43
2018-11-07T03:11:21.770Z,85.71
2018-11-07T03:13:48.074Z,85.48
2018-11-07T03:16:14.393Z,85.28
2018-11-07T03:18:40.718Z,85.28
2018-11-07T03:21:07.025Z,84.68
2018-11-07T03:23:33.330Z,84.88
2018-11-07T03:25:59.634Z,84.90
2018-11-07T03:28:25.940Z,85.00
2018-11-07T03:30:52.262Z,85.17
2018-11-07T03:33:18.582Z,85.62
2018-11-07T03:35:44.901Z,86.08
2018-11-07T03:38:11.229Z,85.70
2018-11-07T03:40:37.533Z,85.62
2018-11-07T03:43:03.859Z,86.35
2018-11-07T03:45:30.170Z,85.96
2018-11-07T03:47:56.477Z,86.07
2018-11-07T03:50:22.782Z,85.60
2018-11-07T03:52:49.106Z,84.96
2018-11-07T03:55:15.417Z,85.85
2018-11-07T03:57:41.722Z,85.77
2018-11-07T04:00:08.054Z,84.54
2018-11-07T04:02:34.383Z,83.51
2018-11-07T04:05:00.693Z,82.62
2018-11-07T04:07:27.015Z,81.62
2018-11-07T04:09:53.350Z,81.29
2018-11-07T04:12:19.670Z,81.31
2018-11-07T04:14:46.009Z,81.69
2018-11-07T04:17:12.340Z,81.38
2018-11-07T04:19:38.644Z,81.38
2018-11-07T04:22:04.959Z,81.62
2018-11-07T04:24:31.278Z,82.01
2018-11-07T04:26:57.582Z,81.94
2018-11-07T04:29:23.911Z,82.08
2018-11-07T04:31:50.210Z,81.97
2018-11-07T04:34:16.543Z,81.96
2018-11-07T04:36:42.905Z,81.76
2018-11-07T04:39:09.242Z,82.33
2018-11-07T04:41:35.544Z,81.96
2018-11-07T04:44:01.872Z,81.92
2018-11-07T04:46:28.195Z,82.54
2018-11-07T04:48:54.505Z,82.45
2018-11-07T04:51:20.845Z,82.43
2018-11-07T04:53:47.150Z,83.08
2018-11-07T04:56:13.453Z,82.98
2018-11-07T04:58:39.783Z,83.28
2018-11-07T05:01:06.113Z,83.50
2018-11-07T05:03:32.425Z,83.21
2018-11-07T05:05:58.731Z,83.43
2018-11-07T05:08:25.083Z,83.60
2018-11-07T05:10:51.358Z,84.04
2018-11-07T05:13:17.689Z,84.28
2018-11-07T05:15:43.991Z,83.98
2018-11-07T05:18:10.297Z,83.82
2018-11-07T05:20:36.595Z,83.98
2018-11-07T05:23:02.896Z,84.28
2018-11-07T05:25:29.226Z,84.83
2018-11-07T05:27:55.558Z,84.68
2018-11-07T05:30:21.885Z,84.11
2018-11-07T05:32:48.212Z,84.50
2018-11-07T05:35:14.519Z,84.24
2018-11-07T05:37:40.841Z,83.87
2018-11-07T05:40:07.145Z,83.84
2018-11-07T05:42:33.475Z,83.25
2018-11-07T05:44:59.781Z,83.61
2018-11-07T05:47:26.101Z,83.00
2018-11-07T05:49:52.425Z,83.06
2018-11-07T05:52:18.749Z,83.07
2018-11-07T05:54:45.077Z,82.55
2018-11-07T05:57:11.375Z,82.97
2018-11-07T05:59:37.705Z,82.52
2018-11-07T06:02:04.033Z,82.75
2018-11-07T06:04:30.356Z,82.45
2018-11-07T06:06:56.651Z,82.33
2018-11-07T06:09:22.956Z,82.61
2018-11-07T06:11:49.264Z,82.70
2018-11-07T06:14:15.562Z,82.83
2018-11-07T06:16:41.865Z,82.66
2018-11-07T06:19:08.168Z,82.60
2018-11-07T06:21:34.470Z,82.50
2018-11-07T06:24:00.798Z,82.54
2018-11-07T06:26:27.100Z,82.41
2018-11-07T06:28:53.413Z,82.42
2018-11-07T06:31:19.731Z,82.17
2018-11-07T06:33:46.062Z,81.87
2018-11-07T06:36:12.387Z,81.44
2018-11-07T06:38:38.693Z,81.31
2018-11-07T06:41:05.026Z,80.52
2018-11-07T06:43:31.331Z,79.14
2018-11-07T06:45:57.632Z,78.77
2018-11-07T06:48:23.994Z,79.00
2018-11-07T06:50:50.303Z,78.89
2018-11-07T06:53:16.625Z,79.29
2018-11-07T06:55:43.020Z,79.54
2018-11-07T06:58:09.261Z,79.66
2018-11-07T07:00:35.632Z,80.00
2018-11-07T07:03:01.959Z,79.74
2018-11-07T07:05:28.286Z,79.72
2018-11-07T07:07:54.613Z,79.51
2018-11-07T07:10:20.919Z,79.18
2018-11-07T07:12:47.224Z,78.73
2018-11-07T07:15:13.554Z,78.00
2018-11-07T07:17:39.911Z,77.09
2018-11-07T07:20:06.166Z,76.95
2018-11-07T07:22:32.571Z,76.45
2018-11-07T07:24:58.897Z,76.38
2018-11-07T07:27:25.205Z,76.43
2018-11-07T07:29:51.536Z,76.09
2018-11-07T07:32:17.840Z,75.65
2018-11-07T07:34:44.139Z,74.80
2018-11-07T07:37:10.473Z,74.35
2018-11-07T07:39:36.772Z,72.86
2018-11-07T07:42:03.085Z,72.48
2018-11-07T07:44:29.389Z,72.45
2018-11-07T07:46:55.714Z,71.90
2018-11-07T07:49:22.084Z,71.06
2018-11-07T07:51:48.374Z,70.60
2018-11-07T07:54:14.698Z,70.77
2018-11-07T07:56:41.028Z,69.66
2018-11-07T07:59:07.333Z,68.97
2018-11-07T08:01:33.641Z,68.93
2018-11-07T08:04:00.006Z,69.02
2018-11-07T08:06:26.328Z,68.81
2018-11-07T08:08:52.632Z,68.12
2018-11-07T08:11:18.957Z,68.71
2018-11-07T08:13:45.341Z,67.91
2018-11-07T08:16:11.594Z,67.21
2018-11-07T08:18:37.919Z,68.08
2018-11-07T08:21:04.237Z,68.08
2018-11-07T08:23:30.529Z,66.96
2018-11-07T08:25:56.858Z,66.27
2018-11-07T08:28:23.169Z,65.75
2018-11-07T08:30:49.513Z,63.59
2018-11-07T08:33:15.820Z,61.96
2018-11-07T08:35:42.120Z,62.15
2018-11-07T08:38:08.451Z,62.16
2018-11-07T08:40:34.751Z,61.87
2018-11-07T08:43:01.058Z,61.03
2018-11-07T08:45:27.387Z,60.56
2018-11-07T08:47:53.727Z,60.15
2018-11-07T08:50:19.992Z,61.70
2018-11-07T08:52:46.317Z,61.62
2018-11-07T08:55:12.752Z,60.20
2018-11-07T08:57:38.975Z,58.84
2018-11-07T09:00:05.311Z,58.18
2018-11-07T09:02:31.615Z,57.79
2018-11-07T09:04:57.948Z,57.29
2018-11-07T09:07:24.253Z,59.30
2018-11-07T09:09:50.584Z,56.98
2018-11-07T09:12:16.952Z,56.90
2018-11-07T09:14:43.215Z,55.95
2018-11-07T09:17:09.542Z,55.84
2018-11-07T09:19:35.858Z,55.84
2018-11-07T09:22:02.154Z,55.17
2018-11-07T09:24:28.531Z,53.77
2018-11-07T09:26:54.782Z,54.09
2018-11-07T09:29:21.166Z,53.99
2018-11-07T09:31:47.441Z,52.92
2018-11-07T09:34:13.741Z,54.19
2018-11-07T09:36:40.074Z,53.24
2018-11-07T09:39:06.379Z,52.31
2018-11-07T09:41:32.685Z,52.22
2018-11-07T09:43:58.990Z,52.47
2018-11-07T09:46:25.288Z,51.51
2018-11-07T09:48:51.614Z,50.32
2018-11-07T09:51:17.918Z,51.71
2018-11-07T09:53:44.252Z,52.44
2018-11-07T09:56:10.555Z,54.23
2018-11-07T09:58:36.854Z,52.94
2018-11-07T10:01:03.186Z,52.08
2018-11-07T10:03:29.491Z,51.30
2018-11-07T10:05:55.820Z,51.17
2018-11-07T10:08:22.148Z,51.28
2018-11-07T10:10:48.480Z,50.95
2018-11-07T10:13:14.806Z,50.17
2018-11-07T10:15:41.114Z,49.04
2018-11-07T10:18:07.415Z,50.30
2018-11-07T10:20:33.765Z,51.70
2018-11-07T10:23:00.076Z,50.09
2018-11-07T10:25:26.404Z,49.36
2018-11-07T10:27:53.101Z,50.24
2018-11-07T10:30:19.205Z,48.79
2018-11-07T10:32:45.353Z,49.70
2018-11-07T10:35:11.677Z,50.05
2018-11-07T10:37:38.031Z,48.17
2018-11-07T10:40:04.373Z,48.60
2018-11-07T10:42:30.677Z,48.71
2018-11-07T10:44:57.024Z,50.39
2018-11-07T10:47:23.324Z,51.01
2018-11-07T10:49:49.645Z,48.99
2018-11-07T10:52:15.973Z,49.26
2018-11-07T10:54:42.292Z,49.10
2018-11-07T10:57:08.621Z,48.06
2018-11-07T10:59:34.923Z,48.09
2018-11-07T11:02:01.227Z,47.99
2018-11-07T11:04:27.555Z,46.74
2018-11-07T11:06:53.857Z,48.17
2018-11-07T11:09:20.152Z,47.42
2018-11-07T11:11:46.456Z,45.81
2018-11-07T11:14:12.765Z,46.04
2018-11-07T11:16:39.125Z,45.14
2018-11-07T11:19:05.424Z,45.75
2018-11-07T11:21:31.749Z,47.34
2018-11-07T11:23:58.062Z,47.88
2018-11-07T11:26:24.366Z,46.74
2018-11-07T11:28:50.709Z,46.59
2018-11-07T11:31:17.036Z,46.25
2018-11-07T11:33:43.348Z,47.03
2018-11-07T11:36:09.636Z,46.93
2018-11-07T11:38:35.937Z,45.15
2018-11-07T11:41:02.331Z,45.87
2018-11-07T11:43:28.599Z,46.11
2018-11-07T11:45:54.923Z,47.06
2018-11-07T11:48:21.224Z,46.47
2018-11-07T11:50:47.550Z,46.11
2018-11-07T11:53:13.856Z,47.15
2018-11-07T11:55:40.183Z,46.91
2018-11-07T11:58:06.480Z,45.37
2018-11-07T12:00:32.852Z,45.09
2018-11-07T12:02:59.116Z,45.27
2018-11-07T12:05:25.429Z,46.08
2018-11-07T12:07:51.755Z,46.42
2018-11-07T12:10:18.084Z,46.51
2018-11-07T12:12:44.412Z,46.80
2018-11-07T12:15:10.773Z,46.70
2018-11-07T12:17:37.058Z,45.84
2018-11-07T12:20:03.330Z,44.10
2018-11-07T12:22:29.652Z,45.90
2018-11-07T12:24:55.979Z,45.93
2018-11-07T12:27:22.282Z,45.53
2018-11-07T12:29:48.635Z,45.76
2018-11-07T12:32:14.944Z,46.69
2018-11-07T12:34:41.274Z,46.36
2018-11-07T12:37:07.602Z,47.01
2018-11-07T12:39:33.932Z,47.29
2018-11-07T12:42:00.262Z,47.38
2018-11-07T12:44:26.590Z,46.95
2018-11-07T12:46:52.888Z,46.45
2018-11-07T12:49:19.213Z,45.99
2018-11-07T12:51:45.526Z,46.39
2018-11-07T12:54:11.856Z,46.83
2018-11-07T12:56:38.169Z,47.55
2018-11-07T12:59:04.465Z,47.93
2018-11-07T13:01:30.795Z,47.66
2018-11-07T13:03:57.119Z,47.57
2018-11-07T13:06:23.447Z,47.49
2018-11-07T13:08:49.752Z,48.43
2018-11-07T13:11:16.129Z,47.65
2018-11-07T13:13:42.385Z,47.84
2018-11-07T13:16:08.715Z,47.95
2018-11-07T13:18:35.043Z,48.46
2018-11-07T13:21:01.373Z,49.52
2018-11-07T13:23:27.712Z,49.66
2018-11-07T13:25:54.066Z,49.72
2018-11-07T13:28:20.483Z,51.05
2018-11-07T13:30:46.672Z,52.26
2018-11-07T13:33:12.999Z,53.32
2018-11-07T13:35:39.327Z,53.47
2018-11-07T13:38:05.848Z,53.46
2018-11-07T13:40:31.961Z,53.45
2018-11-07T13:42:58.284Z,53.70
2018-11-07T13:45:24.672Z,54.27
2018-11-07T13:47:50.897Z,54.69
2018-11-07T13:50:17.229Z,55.30
2018-11-07T13:52:43.554Z,55.46
2018-11-07T13:55:09.912Z,55.62
2018-11-07T13:57:36.212Z,55.86
2018-11-07T14:00:02.537Z,55.86
2018-11-07T14:02:28.841Z,56.11
2018-11-07T14:04:55.174Z,56.14
2018-11-07T14:07:21.473Z,56.04
2018-11-07T14:09:47.846Z,56.17
2018-11-07T14:12:14.144Z,56.24
2018-11-07T14:14:40.451Z,56.51
2018-11-07T14:17:06.758Z,56.76
2018-11-07T14:19:33.090Z,57.11
2018-11-07T14:21:59.397Z,57.27
2018-11-07T14:24:25.700Z,57.44
2018-11-07T14:26:52.032Z,57.72
2018-11-07T14:29:18.385Z,57.98
2018-11-07T14:31:44.706Z,58.38
2018-11-07T14:34:11.046Z,58.82
2018-11-07T14:36:37.313Z,59.19
2018-11-07T14:39:03.709Z,59.41
2018-11-07T14:41:29.970Z,59.72
2018-11-07T14:43:56.326Z,60.03
2018-11-07T14:46:22.644Z,60.44
2018-11-07T14:48:48.937Z,60.62
2018-11-07T14:51:15.236Z,60.79
2018-11-07T14:53:41.606Z,60.96
2018-11-07T14:56:07.900Z,61.27
2018-11-07T14:58:34.203Z,61.46
2018-11-07T15:01:00.515Z,62.19
2018-11-07T15:03:26.819Z,62.67
2018-11-07T15:05:53.176Z,62.71
2018-11-07T15:08:19.544Z,63.09
2018-11-07T15:10:45.811Z,63.39
2018-11-07T15:13:12.142Z,63.64
2018-11-07T15:15:38.465Z,64.01
2018-11-07T15:18:04.769Z,64.55
2018-11-07T15:20:31.080Z,64.66
2018-11-07T15:22:57.408Z,64.87
2018-11-07T15:25:23.731Z,64.94
2018-11-07T15:27:50.047Z,65.30
2018-11-07T15:30:16.349Z,65.63
2018-11-07T15:32:42.678Z,65.92
2018-11-07T15:35:08.985Z,66.28
2018-11-07T15:37:35.335Z,66.51
2018-11-07T15:40:01.724Z,67.08
2018-11-07T15:42:27.969Z,67.59
2018-11-07T15:44:54.276Z,67.82
2018-11-07T15:47:20.607Z,68.14
2018-11-07T15:49:46.940Z,68.73
2018-11-07T15:52:13.299Z,68.81
2018-11-07T15:54:39.610Z,69.08
2018-11-07T15:57:05.912Z,69.23
2018-11-07T15:59:32.243Z,69.46
2018-11-07T16:01:58.570Z,70.06
2018-11-07T16:04:24.906Z,70.06
2018-11-07T16:06:51.233Z,70.56
2018-11-07T16:09:17.534Z,71.15
2018-11-07T16:11:43.854Z,70.98
2018-11-07T16:14:10.167Z,71.31
2018-11-07T16:16:36.494Z,71.16
2018-11-07T16:19:03.105Z,71.43
2018-11-07T16:21:29.431Z,71.79
2018-11-07T16:23:55.847Z,71.89
2018-11-07T16:26:22.123Z,72.10
2018-11-07T16:28:48.542Z,71.85
2018-11-07T16:31:14.735Z,71.94
2018-11-07T16:33:41.063Z,71.85
2018-11-07T16:36:07.392Z,72.37
2018-11-07T16:38:33.753Z,72.09
2018-11-07T16:41:00.051Z,72.96
2018-11-07T16:43:26.403Z,73.17
2018-11-07T16:45:52.756Z,73.35
2018-11-07T16:48:19.082Z,72.81
2018-11-07T16:50:45.332Z,72.54
2018-11-07T16:53:11.637Z,72.90
2018-11-07T16:55:37.966Z,72.78
2018-11-07T16:58:04.293Z,73.89
2018-11-07T17:00:30.627Z,73.90
2018-11-07T17:02:57.004Z,73.87
2018-11-07T17:05:23.309Z,73.73
2018-11-07T17:07:49.602Z,74.82
2018-11-07T17:10:15.934Z,75.45
2018-11-07T17:12:42.257Z,75.37
2018-11-07T17:15:08.563Z,75.59
2018-11-07T17:17:34.899Z,76.01
2018-11-07T17:20:01.224Z,76.19
2018-11-07T17:22:27.561Z,76.30
2018-11-07T17:24:53.884Z,76.45
2018-11-07T17:27:20.207Z,76.78
2018-11-07T17:29:46.534Z,77.05
2018-11-07T17:32:12.858Z,77.17
2018-11-07T17:34:39.166Z,77.67
2018-11-07T17:37:05.479Z,77.55
2018-11-07T17:39:31.801Z,77.56
2018-11-07T17:41:58.103Z,77.49
2018-11-07T17:44:24.433Z,78.02
2018-11-07T17:46:50.752Z,78.01
2018-11-07T17:49:17.062Z,78.57
2018-11-07T17:51:43.385Z,78.32
2018-11-07T17:54:09.808Z,78.55
2018-11-07T17:56:36.170Z,78.82
2018-11-07T17:59:02.435Z,78.87
2018-11-07T18:01:28.731Z,78.52
2018-11-07T18:03:55.089Z,78.90
2018-11-07T18:06:21.401Z,79.02
2018-11-07T18:08:47.717Z,78.77
2018-11-07T18:11:14.021Z,79.35
2018-11-07T18:13:40.323Z,79.63
2018-11-07T18:16:06.625Z,79.50
2018-11-07T18:18:32.953Z,79.72
2018-11-07T18:20:59.273Z,79.96
2018-11-07T18:23:25.608Z,79.90
2018-11-07T18:25:51.905Z,80.05
2018-11-07T18:28:18.204Z,79.96
2018-11-07T18:30:44.533Z,80.10
2018-11-07T18:33:10.832Z,79.95
2018-11-07T18:35:37.264Z,80.04
2018-11-07T18:38:03.513Z,80.25
2018-11-07T18:40:29.823Z,80.42
2018-11-07T18:42:56.254Z,80.21
2018-11-07T18:45:22.484Z,80.18
2018-11-07T18:47:48.813Z,80.30
2018-11-07T18:50:15.171Z,80.60
2018-11-07T18:52:41.450Z,81.10
2018-11-07T18:55:07.749Z,81.83
2018-11-07T18:57:34.072Z,82.54
2018-11-07T19:00:00.367Z,82.81
2018-11-07T19:02:26.675Z,82.64
2018-11-07T19:04:53.036Z,82.24
2018-11-07T19:07:19.335Z,82.14
2018-11-07T19:09:45.691Z,81.93
2018-11-07T19:12:11.993Z,81.65
2018-11-07T19:14:38.321Z,82.11
2018-11-07T19:17:04.644Z,82.17
2018-11-07T19:19:30.972Z,81.89
2018-11-07T19:21:57.279Z,82.12
2018-11-07T19:24:23.600Z,82.49
2018-11-07T19:26:49.946Z,82.56
2018-11-07T19:29:16.212Z,82.25
2018-11-07T19:31:42.545Z,81.98
2018-11-07T19:34:08.873Z,81.85
2018-11-07T19:36:35.197Z,81.45
2018-11-07T19:39:01.499Z,81.81
2018-11-07T19:41:27.826Z,81.49
2018-11-07T19:43:54.150Z,81.53
2018-11-07T19:46:20.478Z,81.30
2018-11-07T19:48:46.796Z,81.41
2018-11-07T19:51:13.171Z,81.25
2018-11-07T19:53:39.517Z,81.21
2018-11-07T19:56:05.788Z,80.90
2018-11-07T19:58:32.174Z,81.14
2018-11-07T20:00:58.516Z,80.84
2018-11-07T20:03:24.798Z,81.22
2018-11-07T20:05:51.120Z,81.22
2018-11-07T20:08:17.427Z,81.27
2018-11-07T20:10:43.733Z,82.08
2018-11-07T20:13:10.032Z,82.50
2018-11-07T20:15:36.327Z,82.73
2018-11-07T20:18:02.654Z,82.72
2018-11-07T20:20:28.989Z,82.79
2018-11-07T20:22:55.410Z,82.81
2018-11-07T20:25:21.634Z,82.89
2018-11-07T20:27:47.948Z,83.14
2018-11-07T20:30:14.278Z,83.14
2018-11-07T20:32:40.609Z,82.80
2018-11-07T20:35:06.912Z,83.14
2018-11-07T20:37:33.249Z,83.04
2018-11-07T20:39:59.548Z,82.90
2018-11-07T20:42:25.850Z,82.95
2018-11-07T20:44:52.151Z,82.82
2018-11-07T20:47:18.450Z,82.81
2018-11-07T20:49:44.818Z,82.10
2018-11-07T20:52:11.120Z,81.28
2018-11-07T20:54:37.445Z,80.65
2018-11-07T20:57:03.750Z,80.39
2018-11-07T20:59:30.050Z,80.36
2018-11-07T21:01:56.383Z,80.54
2018-11-07T21:04:22.667Z,80.66
2018-11-07T21:06:48.965Z,81.03
2018-11-07T21:09:15.292Z,81.10
2018-11-07T21:11:41.716Z,81.50
2018-11-07T21:14:08.017Z,81.56
2018-11-07T21:16:34.377Z,81.57
2018-11-07T21:19:00.699Z,81.59
2018-11-07T21:21:27.004Z,81.82
2018-11-07T21:23:53.335Z,82.00
2018-11-07T21:26:19.665Z,82.38
2018-11-07T21:28:46.048Z,82.57
2018-11-07T21:31:12.439Z,82.90
2018-11-07T21:33:38.661Z,82.95
2018-11-07T21:36:04.989Z,83.35
2018-11-07T21:38:31.295Z,83.57
2018-11-07T21:40:57.595Z,84.13
2018-11-07T21:43:23.892Z,84.09
2018-11-07T21:45:50.322Z,84.75
2018-11-07T21:48:16.648Z,84.80
2018-11-07T21:50:42.974Z,84.58
2018-11-07T21:53:09.304Z,84.45
2018-11-07T21:55:35.604Z,84.22
2018-11-07T21:58:01.932Z,84.07
2018-11-07T22:00:28.240Z,84.66
2018-11-07T22:02:54.672Z,85.13
2018-11-07T22:05:20.894Z,85.22
2018-11-07T22:07:47.224Z,85.22
2018-11-07T22:10:13.550Z,85.81
2018-11-07T22:12:39.853Z,85.72
2018-11-07T22:15:06.152Z,85.67
2018-11-07T22:17:32.457Z,86.28
2018-11-07T22:19:58.807Z,86.80
2018-11-07T22:22:25.108Z,86.85
2018-11-07T22:24:51.417Z,87.14
2018-11-07T22:27:17.747Z,86.86
2018-11-07T22:29:44.056Z,86.71
2018-11-07T22:32:10.359Z,86.60
2018-11-07T22:34:36.660Z,86.48
2018-11-07T22:37:02.985Z,86.76
2018-11-07T22:39:29.300Z,86.70
2018-11-07T22:41:55.664Z,86.76
2018-11-07T22:44:21.964Z,86.94
2018-11-07T22:46:48.289Z,87.14
2018-11-07T22:49:14.599Z,87.10
2018-11-07T22:51:40.905Z,87.19
2018-11-07T22:54:07.216Z,87.18
2018-11-07T22:56:33.569Z,87.42
2018-11-07T22:58:59.891Z,87.35
2018-11-07T23:01:26.202Z,87.32
2018-11-07T23:03:52.586Z,87.43
2018-11-07T23:06:18.830Z,87.54
2018-11-07T23:08:45.143Z,87.71
2018-11-07T23:11:11.477Z,87.60
2018-11-07T23:13:37.808Z,87.77
2018-11-07T23:16:04.135Z,87.67
2018-11-07T23:18:30.534Z,87.85
2018-11-07T23:20:56.794Z,87.99
2018-11-07T23:23:23.126Z,88.18
2018-11-07T23:25:49.452Z,88.49
2018-11-07T23:28:15.777Z,88.86
2018-11-07T23:30:42.087Z,88.75
2018-11-07T23:33:08.389Z,88.94
2018-11-07T23:35:34.729Z,88.84
2018-11-07T23:38:01.072Z,88.72
2018-11-07T23:40:27.374Z,88.39
2018-11-07T23:42:53.672Z,88.50
2018-11-07T23:45:19.983Z,88.76
2018-11-07T23:47:46.306Z,89.27
2018-11-07T23:50:12.680Z,89.02
2018-11-07T23:52:38.979Z,89.21
2018-11-07T23:55:05.285Z,89.25
2018-11-07T23:57:31.654Z,89.47
2018-11-07T23:59:57.933Z,89.47
